sensor_id;sensor_type;location;lat;lon;timestamp;pressure;altitude;pressure_sealevel;temperature
58102;BMP280;52034;51.926;6.320;2023-01-15T09:00:25;99882.72;;;7.31
58102;BMP280;52034;51.926;6.320;2023-01-15T09:01:25;99889.06;;;7.38
58102;BMP280;52034;51.926;6.320;2023-01-15T09:02:25;99892.19;;;7.40
58102;BMP280;52034;51.926;6.320;2023-01-15T09:03:28;99892.03;;;7.37
58102;BMP280;52034;51.926;6.320;2023-01-15T09:04:28;99886.72;;;7.37
58102;BMP280;52034;51.926;6.320;2023-01-15T09:05:28;99882.56;;;7.36
58102;BMP280;52034;51.926;6.320;2023-01-15T09:06:29;99888.00;;;7.39
58102;BMP280;52034;51.926;6.320;2023-01-15T09:07:29;99886.09;;;7.40
58102;BMP280;52034;51.926;6.320;2023-01-15T09:08:30;99881.72;;;7.44
58102;BMP280;52034;51.926;6.320;2023-01-15T09:09:32;99891.69;;;7.47
58102;BMP280;52034;51.926;6.320;2023-01-15T09:10:33;99900.41;;;7.47
58102;BMP280;52034;51.926;6.320;2023-01-15T09:11:34;99887.50;;;7.46
58102;BMP280;52034;51.926;6.320;2023-01-15T09:12:35;99892.81;;;7.46
58102;BMP280;52034;51.926;6.320;2023-01-15T09:13:36;99873.78;;;7.44
58102;BMP280;52034;51.926;6.320;2023-01-15T09:14:37;99870.59;;;7.50
58102;BMP280;52034;51.926;6.320;2023-01-15T09:15:37;99878.56;;;7.50
58102;BMP280;52034;51.926;6.320;2023-01-15T09:16:38;99875.91;;;7.50
58102;BMP280;52034;51.926;6.320;2023-01-15T09:17:38;99871.41;;;7.51
58102;BMP280;52034;51.926;6.320;2023-01-15T09:18:40;99884.03;;;7.54
58102;BMP280;52034;51.926;6.320;2023-01-15T09:19:40;99880.78;;;7.57
58102;BMP280;52034;51.926;6.320;2023-01-15T09:20:40;99867.50;;;7.57
58102;BMP280;52034;51.926;6.320;2023-01-15T09:21:41;99867.63;;;7.60
58102;BMP280;52034;51.926;6.320;2023-01-15T09:22:41;99866.66;;;7.65
58102;BMP280;52034;51.926;6.320;2023-01-15T09:23:42;99879.16;;;7.64
58102;BMP280;52034;51.926;6.320;2023-01-15T09:24:42;99888.53;;;7.62
58102;BMP280;52034;51.926;6.320;2023-01-15T09:25:56;99884.31;;;7.61
58102;BMP280;52034;51.926;6.320;2023-01-15T09:26:56;99886.94;;;7.61
58102;BMP280;52034;51.926;6.320;2023-01-15T09:27:57;99874.63;;;7.65
58102;BMP280;52034;51.926;6.320;2023-01-15T09:28:58;99886.78;;;7.66
58102;BMP280;52034;51.926;6.320;2023-01-15T09:29:58;99896.63;;;7.65
58102;BMP280;52034;51.926;6.320;2023-01-15T09:30:59;99879.16;;;7.64
58102;BMP280;52034;51.926;6.320;2023-01-15T09:32:00;99878.06;;;7.65
58102;BMP280;52034;51.926;6.320;2023-01-15T09:33:01;99893.50;;;7.63
58102;BMP280;52034;51.926;6.320;2023-01-15T09:34:02;99896.16;;;7.63
58102;BMP280;52034;51.926;6.320;2023-01-15T09:35:02;99879.78;;;7.61
58102;BMP280;52034;51.926;6.320;2023-01-15T09:36:03;99875.47;;;7.57
58102;BMP280;52034;51.926;6.320;2023-01-15T09:37:03;99883.97;;;7.62
58102;BMP280;52034;51.926;6.320;2023-01-15T09:38:04;99887.41;;;7.63
58102;BMP280;52034;51.926;6.320;2023-01-15T09:39:04;99891.94;;;7.62
58102;BMP280;52034;51.926;6.320;2023-01-15T09:40:06;99889.44;;;7.66
58102;BMP280;52034;51.926;6.320;2023-01-15T09:41:11;99888.34;;;7.67
58102;BMP280;52034;51.926;6.320;2023-01-15T09:42:51;99883.06;;;7.67
58102;BMP280;52034;51.926;6.320;2023-01-15T09:44:04;99880.72;;;7.65
58102;BMP280;52034;51.926;6.320;2023-01-15T09:45:24;99886.50;;;7.67
58102;BMP280;52034;51.926;6.320;2023-01-15T09:46:36;99890.81;;;7.72
58102;BMP280;52034;51.926;6.320;2023-01-15T09:47:45;99878.34;;;7.72
58102;BMP280;52034;51.926;6.320;2023-01-15T09:49:06;99874.44;;;7.70
58102;BMP280;52034;51.926;6.320;2023-01-15T09:50:32;99881.31;;;7.71
58102;BMP280;52034;51.926;6.320;2023-01-15T09:52:19;99873.47;;;7.74
58102;BMP280;52034;51.926;6.320;2023-01-15T09:53:28;99890.00;;;7.80
58102;BMP280;52034;51.926;6.320;2023-01-15T09:55:49;99890.13;;;7.83
58102;BMP280;52034;51.926;6.320;2023-01-15T09:56:50;99900.28;;;7.90
58102;BMP280;52034;51.926;6.320;2023-01-15T09:57:54;99904.78;;;7.89
58102;BMP280;52034;51.926;6.320;2023-01-15T09:58:58;99899.50;;;7.89
58102;BMP280;52034;51.926;6.320;2023-01-15T10:00:03;99907.47;;;7.81
58102;BMP280;52034;51.926;6.320;2023-01-15T10:01:18;99919.06;;;7.76
58102;BMP280;52034;51.926;6.320;2023-01-15T10:02:34;99904.69;;;7.77
58102;BMP280;52034;51.926;6.320;2023-01-15T10:03:50;99897.31;;;7.83
58102;BMP280;52034;51.926;6.320;2023-01-15T10:05:07;99898.72;;;7.80
58102;BMP280;52034;51.926;6.320;2023-01-15T10:06:16;99881.44;;;7.74
58102;BMP280;52034;51.926;6.320;2023-01-15T10:07:27;99900.47;;;7.76
58102;BMP280;52034;51.926;6.320;2023-01-15T10:08:32;99908.69;;;7.83
58102;BMP280;52034;51.926;6.320;2023-01-15T10:09:36;99907.31;;;7.86
58102;BMP280;52034;51.926;6.320;2023-01-15T10:10:44;99893.56;;;7.84
58102;BMP280;52034;51.926;6.320;2023-01-15T10:11:50;99904.34;;;7.87
58102;BMP280;52034;51.926;6.320;2023-01-15T10:15:55;99901.81;;;7.91
58102;BMP280;52034;51.926;6.320;2023-01-15T10:16:56;99909.13;;;7.94
58102;BMP280;52034;51.926;6.320;2023-01-15T10:17:57;99884.75;;;7.92
58102;BMP280;52034;51.926;6.320;2023-01-15T10:19:00;99907.56;;;7.93
58102;BMP280;52034;51.926;6.320;2023-01-15T10:20:01;99901.63;;;7.96
58102;BMP280;52034;51.926;6.320;2023-01-15T10:22:47;99892.81;;;8.04
58102;BMP280;52034;51.926;6.320;2023-01-15T10:24:13;99895.63;;;8.07
58102;BMP280;52034;51.926;6.320;2023-01-15T10:25:22;99892.66;;;8.09
58102;BMP280;52034;51.926;6.320;2023-01-15T10:26:37;99893.44;;;8.09
58102;BMP280;52034;51.926;6.320;2023-01-15T10:27:44;99890.63;;;8.06
58102;BMP280;52034;51.926;6.320;2023-01-15T10:31:21;99888.75;;;8.06
58102;BMP280;52034;51.926;6.320;2023-01-15T10:34:01;99887.16;;;8.14
58102;BMP280;52034;51.926;6.320;2023-01-15T10:36:21;99894.47;;;8.17
58102;BMP280;52034;51.926;6.320;2023-01-15T10:37:32;99897.28;;;8.20
58102;BMP280;52034;51.926;6.320;2023-01-15T10:38:51;99898.22;;;8.16
58102;BMP280;52034;51.926;6.320;2023-01-15T10:41:36;99910.25;;;8.13
58102;BMP280;52034;51.926;6.320;2023-01-15T10:42:53;99886.69;;;8.12
58102;BMP280;52034;51.926;6.320;2023-01-15T10:46:25;99905.72;;;8.22
58102;BMP280;52034;51.926;6.320;2023-01-15T10:47:33;99893.81;;;8.20
58102;BMP280;52034;51.926;6.320;2023-01-15T10:48:41;99894.47;;;8.17
58102;BMP280;52034;51.926;6.320;2023-01-15T10:49:43;99896.66;;;8.15
58102;BMP280;52034;51.926;6.320;2023-01-15T10:50:46;99878.22;;;8.18
58102;BMP280;52034;51.926;6.320;2023-01-15T10:51:54;99899.94;;;8.20
58102;BMP280;52034;51.926;6.320;2023-01-15T10:53:03;99901.91;;;8.23
58102;BMP280;52034;51.926;6.320;2023-01-15T10:54:26;99898.47;;;8.23
58102;BMP280;52034;51.926;6.320;2023-01-15T10:55:33;99891.28;;;8.23
58102;BMP280;52034;51.926;6.320;2023-01-15T10:56:43;99897.59;;;8.19
58102;BMP280;52034;51.926;6.320;2023-01-15T10:58:02;99884.31;;;8.19
58102;BMP280;52034;51.926;6.320;2023-01-15T10:59:17;99896.28;;;8.25
58102;BMP280;52034;51.926;6.320;2023-01-15T11:00:22;99910.94;;;8.31
58102;BMP280;52034;51.926;6.320;2023-01-15T11:01:24;99900.25;;;8.39
58102;BMP280;52034;51.926;6.320;2023-01-15T11:03:40;99887.22;;;8.46
58102;BMP280;52034;51.926;6.320;2023-01-15T11:04:42;99901.31;;;8.47
58102;BMP280;52034;51.926;6.320;2023-01-15T11:05:42;99876.06;;;8.53
58102;BMP280;52034;51.926;6.320;2023-01-15T11:06:45;99886.97;;;8.60
58102;BMP280;52034;51.926;6.320;2023-01-15T11:07:48;99880.22;;;8.62
58102;BMP280;52034;51.926;6.320;2023-01-15T11:08:51;99894.59;;;8.61
58102;BMP280;52034;51.926;6.320;2023-01-15T11:09:52;99871.66;;;8.57
58102;BMP280;52034;51.926;6.320;2023-01-15T11:10:53;99889.03;;;8.54
58102;BMP280;52034;51.926;6.320;2023-01-15T11:12:05;99899.66;;;8.54
58102;BMP280;52034;51.926;6.320;2023-01-15T11:13:31;99896.22;;;8.54
58102;BMP280;52034;51.926;6.320;2023-01-15T11:14:50;99889.34;;;8.53
58102;BMP280;52034;51.926;6.320;2023-01-15T11:16:21;99874.88;;;8.50
58102;BMP280;52034;51.926;6.320;2023-01-15T11:17:43;99886.13;;;8.47
58102;BMP280;52034;51.926;6.320;2023-01-15T11:19:04;99903.16;;;8.46
58102;BMP280;52034;51.926;6.320;2023-01-15T11:20:30;99904.56;;;8.44
58102;BMP280;52034;51.926;6.320;2023-01-15T11:21:32;99898.50;;;8.43
58102;BMP280;52034;51.926;6.320;2023-01-15T11:22:38;99900.72;;;8.41
58102;BMP280;52034;51.926;6.320;2023-01-15T11:23:38;99908.22;;;8.39
58102;BMP280;52034;51.926;6.320;2023-01-15T11:24:50;99894.34;;;8.34
58102;BMP280;52034;51.926;6.320;2023-01-15T11:25:55;99890.13;;;8.33
58102;BMP280;52034;51.926;6.320;2023-01-15T11:26:56;99915.59;;;8.34
58102;BMP280;52034;51.926;6.320;2023-01-15T11:27:57;99897.47;;;8.36
58102;BMP280;52034;51.926;6.320;2023-01-15T11:29:10;99896.66;;;8.35
58102;BMP280;52034;51.926;6.320;2023-01-15T11:30:26;99901.34;;;8.38
58102;BMP280;52034;51.926;6.320;2023-01-15T11:31:36;99889.31;;;8.41
58102;BMP280;52034;51.926;6.320;2023-01-15T11:32:37;99897.72;;;8.43
58102;BMP280;52034;51.926;6.320;2023-01-15T11:33:38;99907.13;;;8.40
58102;BMP280;52034;51.926;6.320;2023-01-15T11:34:38;99892.28;;;8.39
58102;BMP280;52034;51.926;6.320;2023-01-15T11:35:48;99891.19;;;8.40
58102;BMP280;52034;51.926;6.320;2023-01-15T11:37:03;99908.09;;;8.36
58102;BMP280;52034;51.926;6.320;2023-01-15T11:38:14;99879.06;;;8.31
58102;BMP280;52034;51.926;6.320;2023-01-15T11:39:24;99891.25;;;8.32
58102;BMP280;52034;51.926;6.320;2023-01-15T11:40:26;99893.44;;;8.30
58102;BMP280;52034;51.926;6.320;2023-01-15T11:41:29;99891.25;;;8.32
58102;BMP280;52034;51.926;6.320;2023-01-15T11:42:50;99886.59;;;8.29
58102;BMP280;52034;51.926;6.320;2023-01-15T11:44:09;99905.63;;;8.31
58102;BMP280;52034;51.926;6.320;2023-01-15T11:45:28;99898.31;;;8.28
58102;BMP280;52034;51.926;6.320;2023-01-15T11:46:53;99895.34;;;8.29
58102;BMP280;52034;51.926;6.320;2023-01-15T11:48:15;99880.47;;;8.28
58102;BMP280;52034;51.926;6.320;2023-01-15T11:49:35;99885.78;;;8.28
58102;BMP280;52034;51.926;6.320;2023-01-15T11:51:00;99883.94;;;8.29
58102;BMP280;52034;51.926;6.320;2023-01-15T11:52:07;99888.25;;;8.33
58102;BMP280;52034;51.926;6.320;2023-01-15T11:53:14;99876.53;;;8.34
58102;BMP280;52034;51.926;6.320;2023-01-15T11:54:17;99885.28;;;8.35
58102;BMP280;52034;51.926;6.320;2023-01-15T11:55:20;99890.59;;;8.35
58102;BMP280;52034;51.926;6.320;2023-01-15T11:56:23;99888.06;;;8.38
58102;BMP280;52034;51.926;6.320;2023-01-15T11:57:30;99888.06;;;8.38
58102;BMP280;52034;51.926;6.320;2023-01-15T11:58:33;99896.34;;;8.37
58102;BMP280;52034;51.926;6.320;2023-01-15T11:59:38;99906.06;;;8.33
58102;BMP280;52034;51.926;6.320;2023-01-15T12:00:42;99887.16;;;8.34
58102;BMP280;52034;51.926;6.320;2023-01-15T12:02:58;99892.88;;;8.45
58102;BMP280;52034;51.926;6.320;2023-01-15T12:04:04;99884.56;;;8.46
58102;BMP280;52034;51.926;6.320;2023-01-15T12:05:14;99892.22;;;8.48
58102;BMP280;52034;51.926;6.320;2023-01-15T12:06:18;99884.25;;;8.48
58102;BMP280;52034;51.926;6.320;2023-01-15T12:07:18;99888.16;;;8.50
58102;BMP280;52034;51.926;6.320;2023-01-15T12:08:30;99872.97;;;8.51
58102;BMP280;52034;51.926;6.320;2023-01-15T12:10:17;99899.53;;;8.51
58102;BMP280;52034;51.926;6.320;2023-01-15T12:11:27;99892.13;;;8.56
58102;BMP280;52034;51.926;6.320;2023-01-15T12:15:20;99897.06;;;8.66
58102;BMP280;52034;51.926;6.320;2023-01-15T12:16:47;99873.91;;;8.67
58102;BMP280;52034;51.926;6.320;2023-01-15T12:18:10;99871.91;;;8.64
58102;BMP280;52034;51.926;6.320;2023-01-15T12:19:24;99889.41;;;8.65
58102;BMP280;52034;51.926;6.320;2023-01-15T12:20:41;99876.34;;;8.60
58102;BMP280;52034;51.926;6.320;2023-01-15T12:23:32;99879.19;;;8.55
58102;BMP280;52034;51.926;6.320;2023-01-15T12:26:06;99894.22;;;8.51
58102;BMP280;52034;51.926;6.320;2023-01-15T12:28:34;99868.88;;;8.53
58102;BMP280;52034;51.926;6.320;2023-01-15T12:29:41;99889.81;;;8.55
58102;BMP280;52034;51.926;6.320;2023-01-15T12:30:50;99891.81;;;8.58
58102;BMP280;52034;51.926;6.320;2023-01-15T12:31:56;99881.97;;;8.58
58102;BMP280;52034;51.926;6.320;2023-01-15T12:35:27;99884.09;;;8.65
58102;BMP280;52034;51.926;6.320;2023-01-15T12:36:37;99890.31;;;8.69
58102;BMP280;52034;51.926;6.320;2023-01-15T12:37:45;99895.31;;;8.70
58102;BMP280;52034;51.926;6.320;2023-01-15T12:38:58;99899.19;;;8.73
58102;BMP280;52034;51.926;6.320;2023-01-15T12:41:34;99877.09;;;8.81
58102;BMP280;52034;51.926;6.320;2023-01-15T12:42:54;99880.19;;;8.83
58102;BMP280;52034;51.926;6.320;2023-01-15T12:44:18;99887.97;;;8.88
58102;BMP280;52034;51.926;6.320;2023-01-15T12:45:42;99876.53;;;8.87
58102;BMP280;52034;51.926;6.320;2023-01-15T12:46:44;99880.31;;;8.86
58102;BMP280;52034;51.926;6.320;2023-01-15T12:48:02;99884.72;;;8.82
58102;BMP280;52034;51.926;6.320;2023-01-15T12:50:42;99887.59;;;8.77
58102;BMP280;52034;51.926;6.320;2023-01-15T12:52:09;99874.94;;;8.74
58102;BMP280;52034;51.926;6.320;2023-01-15T12:55:22;99882.03;;;8.82
58102;BMP280;52034;51.926;6.320;2023-01-15T12:57:44;99880.94;;;8.83
58102;BMP280;52034;51.926;6.320;2023-01-15T13:00:16;99883.91;;;8.70
58102;BMP280;52034;51.926;6.320;2023-01-15T13:01:30;99893.31;;;8.67
58102;BMP280;52034;51.926;6.320;2023-01-15T13:02:47;99896.28;;;8.66
58102;BMP280;52034;51.926;6.320;2023-01-15T13:03:59;99885.19;;;8.64
58102;BMP280;52034;51.926;6.320;2023-01-15T13:05:19;99888.63;;;8.64
58102;BMP280;52034;51.926;6.320;2023-01-15T13:06:22;99891.72;;;8.66
58102;BMP280;52034;51.926;6.320;2023-01-15T13:07:33;99873.91;;;8.67
58102;BMP280;52034;51.926;6.320;2023-01-15T13:08:39;99878.13;;;8.68
58102;BMP280;52034;51.926;6.320;2023-01-15T13:09:58;99878.44;;;8.66
58102;BMP280;52034;51.926;6.320;2023-01-15T13:11:00;99879.00;;;8.60
58102;BMP280;52034;51.926;6.320;2023-01-15T13:12:01;99888.38;;;8.57
58102;BMP280;52034;51.926;6.320;2023-01-15T13:13:16;99894.00;;;8.56
58102;BMP280;52034;51.926;6.320;2023-01-15T13:14:18;99892.00;;;8.53
58102;BMP280;52034;51.926;6.320;2023-01-15T13:15:25;99885.50;;;8.50
58102;BMP280;52034;51.926;6.320;2023-01-15T13:17:07;99883.31;;;8.44
58102;BMP280;52034;51.926;6.320;2023-01-15T13:18:14;99897.28;;;8.41
58102;BMP280;52034;51.926;6.320;2023-01-15T13:20:55;99895.84;;;8.43
58102;BMP280;52034;51.926;6.320;2023-01-15T13:22:00;99891.09;;;8.49
58102;BMP280;52034;51.926;6.320;2023-01-15T13:23:22;99884.72;;;8.50
58102;BMP280;52034;51.926;6.320;2023-01-15T13:24:49;99886.25;;;8.51
58102;BMP280;52034;51.926;6.320;2023-01-15T13:27:17;99874.19;;;8.53
58102;BMP280;52034;51.926;6.320;2023-01-15T13:32:20;99881.13;;;8.46
58102;BMP280;52034;51.926;6.320;2023-01-15T13:33:32;99890.97;;;8.45
58102;BMP280;52034;51.926;6.320;2023-01-15T13:34:48;99884.44;;;8.43
58102;BMP280;52034;51.926;6.320;2023-01-15T13:35:53;99898.38;;;8.40
58102;BMP280;52034;51.926;6.320;2023-01-15T13:36:59;99900.59;;;8.38
58102;BMP280;52034;51.926;6.320;2023-01-15T13:38:04;99894.94;;;8.39
58102;BMP280;52034;51.926;6.320;2023-01-15T13:39:17;99899.94;;;8.41
58102;BMP280;52034;51.926;6.320;2023-01-15T13:40:26;99899.78;;;8.37
58102;BMP280;52034;51.926;6.320;2023-01-15T13:41:30;99897.94;;;8.38
58102;BMP280;52034;51.926;6.320;2023-01-15T13:42:51;99902.13;;;8.39
58102;BMP280;52034;51.926;6.320;2023-01-15T13:43:52;99900.13;;;8.36
58102;BMP280;52034;51.926;6.320;2023-01-15T13:44:58;99897.94;;;8.38
58102;BMP280;52034;51.926;6.320;2023-01-15T13:46:02;99918.97;;;8.43
58102;BMP280;52034;51.926;6.320;2023-01-15T13:47:10;99913.78;;;8.46
58102;BMP280;52034;51.926;6.320;2023-01-15T13:48:32;99905.34;;;8.44
58102;BMP280;52034;51.926;6.320;2023-01-15T13:49:36;99899.25;;;8.44
58102;BMP280;52034;51.926;6.320;2023-01-15T13:50:41;99906.91;;;8.45
58102;BMP280;52034;51.926;6.320;2023-01-15T13:51:47;99902.38;;;8.46
58102;BMP280;52034;51.926;6.320;2023-01-15T13:52:48;99914.13;;;8.45
58102;BMP280;52034;51.926;6.320;2023-01-15T13:53:49;99917.84;;;8.44
58102;BMP280;52034;51.926;6.320;2023-01-15T13:54:50;99903.03;;;8.43
58102;BMP280;52034;51.926;6.320;2023-01-15T13:55:56;99924.63;;;8.41
58102;BMP280;52034;51.926;6.320;2023-01-15T13:58:28;99927.53;;;8.28
58102;BMP280;52034;51.926;6.320;2023-01-15T13:59:42;99908.97;;;8.19
58102;BMP280;52034;51.926;6.320;2023-01-15T14:00:44;99927.13;;;8.17
58102;BMP280;52034;51.926;6.320;2023-01-15T14:01:45;99932.44;;;8.17
58102;BMP280;52034;51.926;6.320;2023-01-15T14:02:52;99935.25;;;8.12
58102;BMP280;52034;51.926;6.320;2023-01-15T14:04:02;99939.19;;;8.06
58102;BMP280;52034;51.926;6.320;2023-01-15T14:05:30;99941.06;;;8.06
58102;BMP280;52034;51.926;6.320;2023-01-15T14:06:39;99933.56;;;8.08
58102;BMP280;52034;51.926;6.320;2023-01-15T14:07:40;99930.44;;;8.06
58102;BMP280;52034;51.926;6.320;2023-01-15T14:08:43;99945.78;;;8.00
58102;BMP280;52034;51.926;6.320;2023-01-15T14:09:43;99950.66;;;7.98
58102;BMP280;52034;51.926;6.320;2023-01-15T14:10:44;99962.69;;;7.96
58102;BMP280;52034;51.926;6.320;2023-01-15T14:13:41;99962.88;;;7.91
58102;BMP280;52034;51.926;6.320;2023-01-15T14:15:14;99962.09;;;7.82
58102;BMP280;52034;51.926;6.320;2023-01-15T14:18:00;99960.91;;;7.71
58102;BMP280;52034;51.926;6.320;2023-01-15T14:19:34;99960.31;;;7.65
58102;BMP280;52034;51.926;6.320;2023-01-15T14:22:11;99961.22;;;7.61
58102;BMP280;52034;51.926;6.320;2023-01-15T14:23:34;99965.50;;;7.53
58102;BMP280;52034;51.926;6.320;2023-01-15T14:26:58;99952.06;;;7.50
58102;BMP280;52034;51.926;6.320;2023-01-15T14:29:22;99949.59;;;7.53
58102;BMP280;52034;51.926;6.320;2023-01-15T14:30:46;99963.91;;;7.52
58102;BMP280;52034;51.926;6.320;2023-01-15T14:32:02;99967.84;;;7.55
58102;BMP280;52034;51.926;6.320;2023-01-15T14:34:14;99950.66;;;7.52
58102;BMP280;52034;51.926;6.320;2023-01-15T14:35:20;99958.09;;;7.59
58102;BMP280;52034;51.926;6.320;2023-01-15T14:36:28;99962.03;;;7.61
58102;BMP280;52034;51.926;6.320;2023-01-15T14:37:32;99964.38;;;7.63
58102;BMP280;52034;51.926;6.320;2023-01-15T14:38:34;99965.47;;;7.62
58102;BMP280;52034;51.926;6.320;2023-01-15T14:39:41;99974.97;;;7.63
58102;BMP280;52034;51.926;6.320;2023-01-15T14:40:58;99967.16;;;7.66
58102;BMP280;52034;51.926;6.320;2023-01-15T14:43:47;99962.97;;;7.65
58102;BMP280;52034;51.926;6.320;2023-01-15T14:44:55;99967.63;;;7.68
58102;BMP280;52034;51.926;6.320;2023-01-15T14:46:12;99965.31;;;7.67
58102;BMP280;52034;51.926;6.320;2023-01-15T14:47:24;99969.03;;;7.66
58102;BMP280;52034;51.926;6.320;2023-01-15T14:49:30;99963.44;;;7.67
58102;BMP280;52034;51.926;6.320;2023-01-15T14:50:42;99970.78;;;7.62
58102;BMP280;52034;51.926;6.320;2023-01-15T14:51:48;99980.28;;;7.63
58102;BMP280;52034;51.926;6.320;2023-01-15T14:52:51;99974.97;;;7.63
58102;BMP280;52034;51.926;6.320;2023-01-15T14:54:01;99965.47;;;7.62
58102;BMP280;52034;51.926;6.320;2023-01-15T14:55:09;99971.38;;;7.59
58102;BMP280;52034;51.926;6.320;2023-01-15T14:56:15;99970.97;;;7.57
58102;BMP280;52034;51.926;6.320;2023-01-15T14:57:18;99970.00;;;7.53
58102;BMP280;52034;51.926;6.320;2023-01-15T14:59:50;99971.28;;;7.47
58102;BMP280;52034;51.926;6.320;2023-01-15T15:00:52;99971.44;;;7.42
58102;BMP280;52034;51.926;6.320;2023-01-15T15:01:59;99970.97;;;7.40
58102;BMP280;52034;51.926;6.320;2023-01-15T15:03:12;99970.69;;;7.41
58102;BMP280;52034;51.926;6.320;2023-01-15T15:05:32;99977.84;;;7.41
58102;BMP280;52034;51.926;6.320;2023-01-15T15:06:43;99984.38;;;7.43
58102;BMP280;52034;51.926;6.320;2023-01-15T15:07:47;99984.09;;;7.45
58102;BMP280;52034;51.926;6.320;2023-01-15T15:08:56;99990.94;;;7.46
58102;BMP280;52034;51.926;6.320;2023-01-15T15:10:04;99994.72;;;7.45
58102;BMP280;52034;51.926;6.320;2023-01-15T15:11:15;100000.59;;;7.42
58102;BMP280;52034;51.926;6.320;2023-01-15T15:12:44;99994.06;;;7.39
58102;BMP280;52034;51.926;6.320;2023-01-15T15:13:45;99988.28;;;7.37
58102;BMP280;52034;51.926;6.320;2023-01-15T15:14:51;99986.88;;;7.40
58102;BMP280;52034;51.926;6.320;2023-01-15T15:16:06;99987.81;;;7.44
58102;BMP280;52034;51.926;6.320;2023-01-15T15:17:17;99992.50;;;7.47
58102;BMP280;52034;51.926;6.320;2023-01-15T15:18:30;99980.78;;;7.48
58102;BMP280;52034;51.926;6.320;2023-01-15T15:19:38;99988.44;;;7.49
58102;BMP280;52034;51.926;6.320;2023-01-15T15:20:51;99986.09;;;7.48
58102;BMP280;52034;51.926;6.320;2023-01-15T15:21:54;99981.25;;;7.50
58102;BMP280;52034;51.926;6.320;2023-01-15T15:22:58;99986.44;;;7.46
58102;BMP280;52034;51.926;6.320;2023-01-15T15:24:20;99988.94;;;7.43
58102;BMP280;52034;51.926;6.320;2023-01-15T15:25:24;99974.41;;;7.40
58102;BMP280;52034;51.926;6.320;2023-01-15T15:26:29;99990.00;;;7.42
58102;BMP280;52034;51.926;6.320;2023-01-15T15:27:30;99998.44;;;7.44
58102;BMP280;52034;51.926;6.320;2023-01-15T15:28:30;99999.53;;;7.43
58102;BMP280;52034;51.926;6.320;2023-01-15T15:29:31;99999.06;;;7.41
58102;BMP280;52034;51.926;6.320;2023-01-15T15:30:34;99993.59;;;7.37
58102;BMP280;52034;51.926;6.320;2023-01-15T15:31:37;99992.97;;;7.40
58102;BMP280;52034;51.926;6.320;2023-01-15T15:32:38;99990.00;;;7.42
58102;BMP280;52034;51.926;6.320;2023-01-15T15:33:40;99992.50;;;7.47
58102;BMP280;52034;51.926;6.320;2023-01-15T15:34:43;99990.16;;;7.45
58102;BMP280;52034;51.926;6.320;2023-01-15T15:35:53;99997.50;;;7.48
58102;BMP280;52034;51.926;6.320;2023-01-15T15:36:55;100001.56;;;7.46
58102;BMP280;52034;51.926;6.320;2023-01-15T15:38:00;100003.25;;;7.42
58102;BMP280;52034;51.926;6.320;2023-01-15T15:39:11;99992.34;;;7.43
58102;BMP280;52034;51.926;6.320;2023-01-15T15:40:18;99994.22;;;7.43
58102;BMP280;52034;51.926;6.320;2023-01-15T15:41:21;99994.38;;;7.46
58102;BMP280;52034;51.926;6.320;2023-01-15T15:43:02;100000.00;;;7.45
58102;BMP280;52034;51.926;6.320;2023-01-15T15:44:35;99992.50;;;7.47
58102;BMP280;52034;51.926;6.320;2023-01-15T15:45:58;99999.34;;;7.48
58102;BMP280;52034;51.926;6.320;2023-01-15T15:47:23;99998.25;;;7.49
58102;BMP280;52034;51.926;6.320;2023-01-15T15:48:45;99999.03;;;7.49
58102;BMP280;52034;51.926;6.320;2023-01-15T15:49:52;99991.88;;;7.50
58102;BMP280;52034;51.926;6.320;2023-01-15T15:50:55;99989.53;;;7.48
58102;BMP280;52034;51.926;6.320;2023-01-15T15:51:55;99999.03;;;7.49
58102;BMP280;52034;51.926;6.320;2023-01-15T15:52:56;99997.50;;;7.48
58102;BMP280;52034;51.926;6.320;2023-01-15T15:55:04;100002.47;;;7.50
58102;BMP280;52034;51.926;6.320;2023-01-15T15:56:05;100002.47;;;7.50
58102;BMP280;52034;51.926;6.320;2023-01-15T15:57:15;100000.28;;;7.52
58102;BMP280;52034;51.926;6.320;2023-01-15T15:58:23;99992.63;;;7.50
58102;BMP280;52034;51.926;6.320;2023-01-15T15:59:29;99986.56;;;7.50
58102;BMP280;52034;51.926;6.320;2023-01-15T16:00:38;99990.44;;;7.52
58102;BMP280;52034;51.926;6.320;2023-01-15T16:01:40;99996.53;;;7.53
58102;BMP280;52034;51.926;6.320;2023-01-15T16:02:41;99983.59;;;7.51
58102;BMP280;52034;51.926;6.320;2023-01-15T16:03:46;99987.47;;;7.54
58102;BMP280;52034;51.926;6.320;2023-01-15T16:04:49;99984.50;;;7.55
58102;BMP280;52034;51.926;6.320;2023-01-15T16:06:59;99986.88;;;7.57
58102;BMP280;52034;51.926;6.320;2023-01-15T16:09:20;99969.81;;;7.66
58102;BMP280;52034;51.926;6.320;2023-01-15T16:10:32;99969.03;;;7.66
58102;BMP280;52034;51.926;6.320;2023-01-15T16:11:34;99967.97;;;7.67
58102;BMP280;52034;51.926;6.320;2023-01-15T16:12:41;99977.78;;;7.66
58102;BMP280;52034;51.926;6.320;2023-01-15T16:13:44;99955.75;;;7.66
58102;BMP280;52034;51.926;6.320;2023-01-15T16:14:46;99946.41;;;7.68
58102;BMP280;52034;51.926;6.320;2023-01-15T16:15:48;99968.88;;;7.71
58102;BMP280;52034;51.926;6.320;2023-01-15T16:16:50;99999.28;;;7.73
58102;BMP280;52034;51.926;6.320;2023-01-15T16:17:51;100033.63;;;7.78
58102;BMP280;52034;51.926;6.320;2023-01-15T16:18:54;100026.47;;;7.79
58102;BMP280;52034;51.926;6.320;2023-01-15T16:19:55;100028.63;;;7.77
58102;BMP280;52034;51.926;6.320;2023-01-15T16:20:56;100023.81;;;7.70
58102;BMP280;52034;51.926;6.320;2023-01-15T16:21:57;100037.56;;;7.64
58102;BMP280;52034;51.926;6.320;2023-01-15T16:23:01;100042.28;;;7.58
58102;BMP280;52034;51.926;6.320;2023-01-15T16:24:04;100041.94;;;7.51
58102;BMP280;52034;51.926;6.320;2023-01-15T16:25:05;100047.44;;;7.46
58102;BMP280;52034;51.926;6.320;2023-01-15T16:26:17;100039.47;;;7.46
58102;BMP280;52034;51.926;6.320;2023-01-15T16:27:20;100028.53;;;7.48
58102;BMP280;52034;51.926;6.320;2023-01-15T16:28:26;100028.22;;;7.49
58102;BMP280;52034;51.926;6.320;2023-01-15T16:29:31;100035.06;;;7.50
58102;BMP280;52034;51.926;6.320;2023-01-15T16:30:32;100034.47;;;7.53
58102;BMP280;52034;51.926;6.320;2023-01-15T16:31:36;100027.09;;;7.59
58102;BMP280;52034;51.926;6.320;2023-01-15T16:32:37;100022.25;;;7.61
58102;BMP280;52034;51.926;6.320;2023-01-15T16:33:38;100017.75;;;7.61
58102;BMP280;52034;51.926;6.320;2023-01-15T16:34:39;100006.03;;;7.62
58102;BMP280;52034;51.926;6.320;2023-01-15T16:35:40;100020.06;;;7.63
58102;BMP280;52034;51.926;6.320;2023-01-15T16:36:41;100017.25;;;7.59
58102;BMP280;52034;51.926;6.320;2023-01-15T16:38:14;100015.41;;;7.60
58102;BMP280;52034;51.926;6.320;2023-01-15T16:41:27;100012.47;;;7.53
58102;BMP280;52034;51.926;6.320;2023-01-15T16:42:36;100016.06;;;7.57
58102;BMP280;52034;51.926;6.320;2023-01-15T16:43:50;100021.66;;;7.55